Vanguard, Canada
Current Conditions -  °F | °C
As of 7:44 AM on Sunday 23 Nov 2014 (Local Time) from CYYN Reporting Station
Light Snow Light Snow  
Wind Chill: -15°   Ceiling: 700
Heat Index: -7°   Visibility: 4mi
Dew Point: -8°   Wind: 17mph
Humidity: 93%   Direction: 320°NW
Pressure: 29.69"   Gusts: 24mph
Location:  49.9°N, 107.3°W
Report Text: CYYN 231344Z AUTO 32015G21KT 4SM -SN BKN007 OVC013 M07/M08 A2969 RMK SLP092
Loading
Personal Weather Stations






























Interactive Weather Map New forecast layout! Learn more

10-Day Weather Forecast

Advertisements
Track Severe Weather on mobile